N166RB KZPH-KSPG
Flight info
| Callsign | N166RB |
|---|---|
| Flight time | N/A |
| Altitude | 3000 |
| Route | KSPG |
| Aircraft | C172/L-V/N |
Departure
| Time | 2026-04-26 14:41 |
|---|---|
| Airport | Zephyrhills Municipal Airport (KZPH) |
Arrival
| Time | N/A |
|---|---|
| Airport | Albert Whitted Airport (KSPG) |
| Time | Latitude | Longitude | Altitude | Speed | Heading |
|---|---|---|---|---|---|
| 2026-04-26 14:37 | 28.22431 | -82.16361 | 82 ft | 0 kts | 43° |
| 2026-04-26 14:40 | 28.22482 | -82.16310 | 82 ft | 32 kts | 42° |
| 2026-04-26 14:40 | 28.22759 | -82.16015 | 110 ft | 68 kts | 44° |
| 2026-04-26 14:40 | 28.23058 | -82.15646 | 339 ft | 58 kts | 47° |
| 2026-04-26 14:40 | 28.23356 | -82.15263 | 476 ft | 63 kts | 50° |
| 2026-04-26 14:41 | 28.23429 | -82.14814 | 592 ft | 70 kts | 115° |
| 2026-04-26 14:41 | 28.23006 | -82.14524 | 733 ft | 74 kts | 181° |
| 2026-04-26 14:41 | 28.22538 | -82.14841 | 823 ft | 85 kts | 231° |
| 2026-04-26 14:41 | 28.22373 | -82.15068 | 887 ft | 87 kts | 233° |
| 2026-04-26 14:42 | 28.22040 | -82.15636 | 1065 ft | 85 kts | 241° |
| 2026-04-26 14:42 | 28.21844 | -82.16269 | 1214 ft | 88 kts | 268° |
| 2026-04-26 14:42 | 28.21833 | -82.16969 | 1345 ft | 91 kts | 255° |
| 2026-04-26 14:42 | 28.21477 | -82.17545 | 1462 ft | 89 kts | 219° |
| 2026-04-26 14:43 | 28.20930 | -82.17928 | 1479 ft | 95 kts | 212° |
| 2026-04-26 14:43 | 28.20370 | -82.18308 | 1534 ft | 89 kts | 209° |
| 2026-04-26 14:43 | 28.19860 | -82.18650 | 1643 ft | 80 kts | 210° |
| 2026-04-26 14:43 | 28.19418 | -82.18977 | 1750 ft | 71 kts | 212° |
| 2026-04-26 14:44 | 28.19040 | -82.19285 | 1852 ft | 63 kts | 213° |
| 2026-04-26 14:44 | 28.18654 | -82.19505 | 1869 ft | 68 kts | 181° |
| 2026-04-26 14:44 | 28.18262 | -82.19300 | 1901 ft | 68 kts | 136° |
| 2026-04-26 14:44 | 28.17794 | -82.19154 | 2008 ft | 74 kts | 182° |
| 2026-04-26 14:45 | 28.17303 | -82.19393 | 2126 ft | 81 kts | 219° |
| 2026-04-26 14:45 | 28.17077 | -82.19742 | 2203 ft | 85 kts | 244° |
| 2026-04-26 14:45 | 28.16841 | -82.20621 | 2375 ft | 90 kts | 250° |
| 2026-04-26 14:45 | 28.16585 | -82.21275 | 2506 ft | 92 kts | 239° |
| 2026-04-26 14:46 | 28.16224 | -82.21878 | 2635 ft | 93 kts | 230° |
| 2026-04-26 14:46 | 28.15793 | -82.22440 | 2762 ft | 95 kts | 225° |
| 2026-04-26 14:46 | 28.15327 | -82.22971 | 2888 ft | 95 kts | 223° |
| 2026-04-26 14:46 | 28.14838 | -82.23494 | 2987 ft | 99 kts | 221° |
| 2026-04-26 14:47 | 28.14304 | -82.24051 | 3004 ft | 107 kts | 221° |
| 2026-04-26 14:47 | 28.13740 | -82.24638 | 3004 ft | 113 kts | 222° |
| 2026-04-26 14:47 | 28.13144 | -82.25258 | 3002 ft | 116 kts | 222° |
| 2026-04-26 14:47 | 28.12548 | -82.25877 | 2999 ft | 115 kts | 222° |
| 2026-04-26 14:48 | 28.11970 | -82.26481 | 2998 ft | 111 kts | 222° |
| 2026-04-26 14:48 | 28.11407 | -82.27065 | 2999 ft | 109 kts | 221° |
| 2026-04-26 14:48 | 28.10846 | -82.27641 | 2999 ft | 107 kts | 222° |
| 2026-04-26 14:48 | 28.10295 | -82.28206 | 3000 ft | 106 kts | 221° |
| 2026-04-26 14:49 | 28.09749 | -82.28764 | 3000 ft | 106 kts | 221° |
| 2026-04-26 14:49 | 28.09193 | -82.29331 | 3000 ft | 106 kts | 221° |
| 2026-04-26 14:49 | 28.08647 | -82.29890 | 3000 ft | 106 kts | 221° |
| 2026-04-26 14:49 | 28.08093 | -82.30456 | 3000 ft | 106 kts | 221° |
| 2026-04-26 14:50 | 28.07539 | -82.31023 | 3000 ft | 106 kts | 221° |
| 2026-04-26 14:50 | 28.06986 | -82.31589 | 3000 ft | 106 kts | 221° |
| 2026-04-26 14:50 | 28.06442 | -82.32146 | 3000 ft | 106 kts | 221° |
| 2026-04-26 14:50 | 28.05892 | -82.32708 | 3000 ft | 106 kts | 221° |
| 2026-04-26 14:51 | 28.05339 | -82.33273 | 3000 ft | 106 kts | 221° |
| 2026-04-26 14:51 | 28.04783 | -82.33842 | 3000 ft | 106 kts | 221° |
| 2026-04-26 14:51 | 28.04234 | -82.34403 | 3000 ft | 106 kts | 221° |
| 2026-04-26 14:51 | 28.03679 | -82.34971 | 3000 ft | 106 kts | 221° |
| 2026-04-26 14:52 | 28.03133 | -82.35529 | 3000 ft | 106 kts | 221° |
| 2026-04-26 14:52 | 28.02576 | -82.36098 | 3000 ft | 106 kts | 221° |
| 2026-04-26 14:52 | 28.02024 | -82.36662 | 3000 ft | 106 kts | 221° |
| 2026-04-26 14:52 | 28.01472 | -82.37221 | 3002 ft | 106 kts | 220° |
| 2026-04-26 14:53 | 28.00903 | -82.37759 | 3005 ft | 106 kts | 218° |
| 2026-04-26 14:53 | 28.00326 | -82.38290 | 3005 ft | 106 kts | 220° |
| 2026-04-26 14:53 | 27.99775 | -82.38851 | 3006 ft | 106 kts | 223° |
| 2026-04-26 14:53 | 27.99253 | -82.39436 | 3005 ft | 106 kts | 225° |
| 2026-04-26 14:54 | 27.98715 | -82.40028 | 3005 ft | 106 kts | 222° |
| 2026-04-26 14:54 | 27.98167 | -82.40597 | 3005 ft | 106 kts | 221° |
| 2026-04-26 14:54 | 27.97599 | -82.41135 | 3006 ft | 106 kts | 217° |
| 2026-04-26 14:54 | 27.97009 | -82.41650 | 3005 ft | 106 kts | 217° |
| 2026-04-26 14:55 | 27.96423 | -82.42162 | 3005 ft | 106 kts | 217° |
| 2026-04-26 14:55 | 27.95842 | -82.42678 | 3005 ft | 106 kts | 218° |
| 2026-04-26 14:55 | 27.95258 | -82.43205 | 3005 ft | 106 kts | 218° |
| 2026-04-26 14:55 | 27.94679 | -82.43729 | 3005 ft | 106 kts | 218° |
| 2026-04-26 14:56 | 27.94101 | -82.44257 | 3005 ft | 106 kts | 218° |
| 2026-04-26 14:56 | 27.93519 | -82.44788 | 3005 ft | 106 kts | 218° |
| 2026-04-26 14:56 | 27.92941 | -82.45317 | 3005 ft | 106 kts | 218° |
| 2026-04-26 14:56 | 27.92368 | -82.45841 | 3005 ft | 106 kts | 218° |
| 2026-04-26 14:57 | 27.91784 | -82.46375 | 3005 ft | 106 kts | 218° |
| 2026-04-26 14:57 | 27.91210 | -82.46900 | 3005 ft | 106 kts | 218° |
| 2026-04-26 14:57 | 27.90633 | -82.47427 | 3005 ft | 106 kts | 218° |
| 2026-04-26 14:57 | 27.90053 | -82.47956 | 3005 ft | 106 kts | 218° |
| 2026-04-26 14:58 | 27.89855 | -82.48137 | 3005 ft | 106 kts | 218° |